sensor_id;sensor_type;location;lat;lon;timestamp;temperature;humidity
12827;DHT22;66927;48.812;9.118;2023-03-29T00:02:10;7.60;99.90
12827;DHT22;66927;48.812;9.118;2023-03-29T00:05:23;7.90;99.90
12827;DHT22;66927;48.812;9.118;2023-03-29T00:22:41;7.80;99.90
12827;DHT22;66927;48.812;9.118;2023-03-29T00:25:08;7.80;99.90
12827;DHT22;66927;48.812;9.118;2023-03-29T00:27:35;7.80;99.90
12827;DHT22;66927;48.812;9.118;2023-03-29T00:30:01;7.80;99.90
12827;DHT22;66927;48.812;9.118;2023-03-29T00:32:28;7.80;99.90
12827;DHT22;66927;48.812;9.118;2023-03-29T00:34:54;7.80;99.90
12827;DHT22;66927;48.812;9.118;2023-03-29T00:37:21;7.90;99.90
12827;DHT22;66927;48.812;9.118;2023-03-29T00:39:51;7.80;99.90
12827;DHT22;66927;48.812;9.118;2023-03-29T00:42:17;7.80;99.90
12827;DHT22;66927;48.812;9.118;2023-03-29T00:47:31;7.80;99.90
12827;DHT22;66927;48.812;9.118;2023-03-29T00:50:07;7.70;99.90
12827;DHT22;66927;48.812;9.118;2023-03-29T00:52:34;7.70;99.90
12827;DHT22;66927;48.812;9.118;2023-03-29T01:05:31;7.60;99.90
12827;DHT22;66927;48.812;9.118;2023-03-29T01:08:03;7.70;99.90
12827;DHT22;66927;48.812;9.118;2023-03-29T01:10:42;7.60;99.90
12827;DHT22;66927;48.812;9.118;2023-03-29T01:13:57;7.60;99.90
12827;DHT22;66927;48.812;9.118;2023-03-29T01:16:21;7.50;99.90
12827;DHT22;66927;48.812;9.118;2023-03-29T01:33:02;7.50;99.90
12827;DHT22;66927;48.812;9.118;2023-03-29T01:35:44;7.50;99.90
12827;DHT22;66927;48.812;9.118;2023-03-29T01:38:14;7.50;99.90
12827;DHT22;66927;48.812;9.118;2023-03-29T01:40:41;7.50;99.90
12827;DHT22;66927;48.812;9.118;2023-03-29T01:46:45;7.50;99.90
12827;DHT22;66927;48.812;9.118;2023-03-29T01:49:26;7.40;99.90
12827;DHT22;66927;48.812;9.118;2023-03-29T01:52:00;7.40;99.90
12827;DHT22;66927;48.812;9.118;2023-03-29T01:54:39;7.40;99.90
12827;DHT22;66927;48.812;9.118;2023-03-29T01:57:08;7.40;99.90
12827;DHT22;66927;48.812;9.118;2023-03-29T01:59:37;7.40;99.90
12827;DHT22;66927;48.812;9.118;2023-03-29T02:02:07;7.40;99.90
12827;DHT22;66927;48.812;9.118;2023-03-29T02:04:38;7.40;99.90
12827;DHT22;66927;48.812;9.118;2023-03-29T02:07:07;7.40;99.90
12827;DHT22;66927;48.812;9.118;2023-03-29T02:09:35;7.30;99.90
12827;DHT22;66927;48.812;9.118;2023-03-29T02:12:02;7.30;99.90
12827;DHT22;66927;48.812;9.118;2023-03-29T02:14:29;7.20;99.90
12827;DHT22;66927;48.812;9.118;2023-03-29T02:16:55;7.20;99.90
12827;DHT22;66927;48.812;9.118;2023-03-29T02:19:21;7.30;99.90
12827;DHT22;66927;48.812;9.118;2023-03-29T02:21:59;7.20;99.90
12827;DHT22;66927;48.812;9.118;2023-03-29T02:24:30;7.20;99.90
12827;DHT22;66927;48.812;9.118;2023-03-29T02:26:57;7.20;99.90
12827;DHT22;66927;48.812;9.118;2023-03-29T02:29:24;7.20;99.90
12827;DHT22;66927;48.812;9.118;2023-03-29T02:32:11;7.40;99.90
12827;DHT22;66927;48.812;9.118;2023-03-29T02:35:05;7.30;99.90
12827;DHT22;66927;48.812;9.118;2023-03-29T02:37:32;7.30;99.90
12827;DHT22;66927;48.812;9.118;2023-03-29T02:39:59;7.10;99.90
12827;DHT22;66927;48.812;9.118;2023-03-29T02:42:25;7.10;99.90
12827;DHT22;66927;48.812;9.118;2023-03-29T02:44:56;7.20;99.90
12827;DHT22;66927;48.812;9.118;2023-03-29T02:47:30;7.10;99.90
12827;DHT22;66927;48.812;9.118;2023-03-29T02:49:57;7.20;99.90
12827;DHT22;66927;48.812;9.118;2023-03-29T02:52:28;7.00;99.90
12827;DHT22;66927;48.812;9.118;2023-03-29T02:54:57;7.00;99.90
12827;DHT22;66927;48.812;9.118;2023-03-29T02:57:25;7.00;99.90
12827;DHT22;66927;48.812;9.118;2023-03-29T02:59:54;7.00;99.90
12827;DHT22;66927;48.812;9.118;2023-03-29T03:02:22;7.00;99.90
12827;DHT22;66927;48.812;9.118;2023-03-29T03:04:50;6.90;99.90
12827;DHT22;66927;48.812;9.118;2023-03-29T03:07:16;6.90;99.90
12827;DHT22;66927;48.812;9.118;2023-03-29T03:09:42;6.90;99.90
12827;DHT22;66927;48.812;9.118;2023-03-29T03:12:07;6.80;99.90
12827;DHT22;66927;48.812;9.118;2023-03-29T03:14:33;6.80;99.90
12827;DHT22;66927;48.812;9.118;2023-03-29T03:16:59;6.80;99.90
12827;DHT22;66927;48.812;9.118;2023-03-29T03:19:25;6.80;99.90
12827;DHT22;66927;48.812;9.118;2023-03-29T03:21:51;6.80;99.90
12827;DHT22;66927;48.812;9.118;2023-03-29T03:24:16;6.80;99.90
12827;DHT22;66927;48.812;9.118;2023-03-29T03:26:42;6.80;99.90
12827;DHT22;66927;48.812;9.118;2023-03-29T03:29:11;6.80;99.90
12827;DHT22;66927;48.812;9.118;2023-03-29T03:31:37;6.70;99.90
12827;DHT22;66927;48.812;9.118;2023-03-29T03:34:06;6.90;99.90
12827;DHT22;66927;48.812;9.118;2023-03-29T03:36:33;7.00;99.90
12827;DHT22;66927;48.812;9.118;2023-03-29T03:38:59;7.00;99.90
12827;DHT22;66927;48.812;9.118;2023-03-29T03:41:26;7.10;99.90
12827;DHT22;66927;48.812;9.118;2023-03-29T03:43:51;7.30;99.90
12827;DHT22;66927;48.812;9.118;2023-03-29T03:46:17;7.40;99.90
12827;DHT22;66927;48.812;9.118;2023-03-29T03:48:44;7.30;99.90
12827;DHT22;66927;48.812;9.118;2023-03-29T03:51:10;7.20;99.90
12827;DHT22;66927;48.812;9.118;2023-03-29T03:53:36;7.20;99.90
12827;DHT22;66927;48.812;9.118;2023-03-29T03:56:02;7.30;99.90
12827;DHT22;66927;48.812;9.118;2023-03-29T03:58:33;7.40;99.90
12827;DHT22;66927;48.812;9.118;2023-03-29T04:00:59;7.30;99.90
12827;DHT22;66927;48.812;9.118;2023-03-29T04:03:26;7.40;99.90
12827;DHT22;66927;48.812;9.118;2023-03-29T04:05:51;7.50;99.90
12827;DHT22;66927;48.812;9.118;2023-03-29T04:08:18;7.50;99.90
12827;DHT22;66927;48.812;9.118;2023-03-29T04:10:53;7.50;99.90
12827;DHT22;66927;48.812;9.118;2023-03-29T04:13:20;7.60;99.90
12827;DHT22;66927;48.812;9.118;2023-03-29T04:15:47;7.60;99.90
12827;DHT22;66927;48.812;9.118;2023-03-29T04:18:14;7.60;99.90
12827;DHT22;66927;48.812;9.118;2023-03-29T04:20:40;7.60;99.90
12827;DHT22;66927;48.812;9.118;2023-03-29T04:23:06;7.70;99.90
12827;DHT22;66927;48.812;9.118;2023-03-29T04:25:31;7.70;99.90
12827;DHT22;66927;48.812;9.118;2023-03-29T04:27:57;7.80;99.90
12827;DHT22;66927;48.812;9.118;2023-03-29T04:30:23;7.90;99.90
12827;DHT22;66927;48.812;9.118;2023-03-29T04:32:49;8.00;99.90
12827;DHT22;66927;48.812;9.118;2023-03-29T04:35:15;8.00;99.90
12827;DHT22;66927;48.812;9.118;2023-03-29T04:37:40;8.00;99.90
12827;DHT22;66927;48.812;9.118;2023-03-29T04:40:07;8.10;99.90
12827;DHT22;66927;48.812;9.118;2023-03-29T04:42:35;8.10;99.90
12827;DHT22;66927;48.812;9.118;2023-03-29T04:45:01;8.20;99.90
12827;DHT22;66927;48.812;9.118;2023-03-29T04:47:27;8.10;99.90
12827;DHT22;66927;48.812;9.118;2023-03-29T04:49:54;8.10;99.90
12827;DHT22;66927;48.812;9.118;2023-03-29T04:52:20;8.10;99.90
12827;DHT22;66927;48.812;9.118;2023-03-29T04:54:46;8.20;99.90
12827;DHT22;66927;48.812;9.118;2023-03-29T04:57:12;8.20;99.90
12827;DHT22;66927;48.812;9.118;2023-03-29T04:59:38;8.20;99.90
12827;DHT22;66927;48.812;9.118;2023-03-29T05:02:04;8.30;99.90
12827;DHT22;66927;48.812;9.118;2023-03-29T05:04:30;8.20;99.90
12827;DHT22;66927;48.812;9.118;2023-03-29T05:06:57;8.20;99.90
12827;DHT22;66927;48.812;9.118;2023-03-29T05:09:23;8.20;99.90
12827;DHT22;66927;48.812;9.118;2023-03-29T05:11:50;8.30;99.90
12827;DHT22;66927;48.812;9.118;2023-03-29T05:14:16;8.40;99.90
12827;DHT22;66927;48.812;9.118;2023-03-29T05:16:42;8.30;99.90
12827;DHT22;66927;48.812;9.118;2023-03-29T05:19:08;8.30;99.90
12827;DHT22;66927;48.812;9.118;2023-03-29T05:21:35;8.30;99.90
12827;DHT22;66927;48.812;9.118;2023-03-29T05:24:01;8.30;99.90
12827;DHT22;66927;48.812;9.118;2023-03-29T05:26:27;8.30;99.90
12827;DHT22;66927;48.812;9.118;2023-03-29T05:28:53;8.40;99.90
12827;DHT22;66927;48.812;9.118;2023-03-29T05:31:19;8.40;99.90
12827;DHT22;66927;48.812;9.118;2023-03-29T05:33:46;8.50;99.90
12827;DHT22;66927;48.812;9.118;2023-03-29T05:36:14;8.50;99.90
12827;DHT22;66927;48.812;9.118;2023-03-29T05:38:41;8.50;99.90
12827;DHT22;66927;48.812;9.118;2023-03-29T05:41:07;8.50;99.90
12827;DHT22;66927;48.812;9.118;2023-03-29T05:43:33;8.40;99.90
12827;DHT22;66927;48.812;9.118;2023-03-29T05:45:59;8.50;99.90
12827;DHT22;66927;48.812;9.118;2023-03-29T05:48:25;8.50;99.90
12827;DHT22;66927;48.812;9.118;2023-03-29T05:50:53;8.60;99.90
12827;DHT22;66927;48.812;9.118;2023-03-29T05:53:20;8.60;99.90
12827;DHT22;66927;48.812;9.118;2023-03-29T05:55:47;8.60;99.90
12827;DHT22;66927;48.812;9.118;2023-03-29T05:58:13;8.60;99.90
12827;DHT22;66927;48.812;9.118;2023-03-29T06:00:40;8.60;99.90
12827;DHT22;66927;48.812;9.118;2023-03-29T06:03:07;8.70;99.80
12827;DHT22;66927;48.812;9.118;2023-03-29T06:05:38;8.70;99.80
12827;DHT22;66927;48.812;9.118;2023-03-29T06:08:04;8.50;99.80
12827;DHT22;66927;48.812;9.118;2023-03-29T06:10:30;8.70;99.70
12827;DHT22;66927;48.812;9.118;2023-03-29T06:12:57;8.80;99.40
12827;DHT22;66927;48.812;9.118;2023-03-29T06:15:23;8.80;99.50
12827;DHT22;66927;48.812;9.118;2023-03-29T06:17:49;8.90;99.40
12827;DHT22;66927;48.812;9.118;2023-03-29T06:20:15;8.90;99.40
12827;DHT22;66927;48.812;9.118;2023-03-29T06:22:41;8.90;99.50
12827;DHT22;66927;48.812;9.118;2023-03-29T06:25:08;8.80;99.80
12827;DHT22;66927;48.812;9.118;2023-03-29T06:27:36;8.80;99.90
12827;DHT22;66927;48.812;9.118;2023-03-29T06:30:03;8.80;99.90
12827;DHT22;66927;48.812;9.118;2023-03-29T06:32:32;8.90;99.90
12827;DHT22;66927;48.812;9.118;2023-03-29T06:34:57;9.00;99.90
12827;DHT22;66927;48.812;9.118;2023-03-29T06:37:24;9.10;99.90
12827;DHT22;66927;48.812;9.118;2023-03-29T06:39:50;9.10;99.90
12827;DHT22;66927;48.812;9.118;2023-03-29T06:42:20;9.20;99.90
12827;DHT22;66927;48.812;9.118;2023-03-29T06:44:47;9.20;99.90
12827;DHT22;66927;48.812;9.118;2023-03-29T06:47:14;9.30;99.90
12827;DHT22;66927;48.812;9.118;2023-03-29T06:49:40;9.40;99.90
12827;DHT22;66927;48.812;9.118;2023-03-29T06:52:06;9.50;99.90
12827;DHT22;66927;48.812;9.118;2023-03-29T06:54:32;9.50;99.90
12827;DHT22;66927;48.812;9.118;2023-03-29T06:56:59;9.60;99.90
12827;DHT22;66927;48.812;9.118;2023-03-29T06:59:25;9.70;99.90
12827;DHT22;66927;48.812;9.118;2023-03-29T07:01:51;9.70;99.90
12827;DHT22;66927;48.812;9.118;2023-03-29T07:04:20;9.70;99.90
12827;DHT22;66927;48.812;9.118;2023-03-29T07:06:48;9.80;99.90
12827;DHT22;66927;48.812;9.118;2023-03-29T07:09:23;9.80;99.90
12827;DHT22;66927;48.812;9.118;2023-03-29T07:11:50;9.80;99.90
12827;DHT22;66927;48.812;9.118;2023-03-29T07:14:16;9.90;99.90
12827;DHT22;66927;48.812;9.118;2023-03-29T07:16:42;10.00;99.90
12827;DHT22;66927;48.812;9.118;2023-03-29T07:19:11;10.00;99.90
12827;DHT22;66927;48.812;9.118;2023-03-29T07:21:37;10.00;99.90
12827;DHT22;66927;48.812;9.118;2023-03-29T07:24:03;10.00;99.90
12827;DHT22;66927;48.812;9.118;2023-03-29T07:26:29;10.10;99.90
12827;DHT22;66927;48.812;9.118;2023-03-29T07:28:55;10.10;99.90
12827;DHT22;66927;48.812;9.118;2023-03-29T07:31:20;10.20;99.90
12827;DHT22;66927;48.812;9.118;2023-03-29T07:33:46;10.20;99.90
12827;DHT22;66927;48.812;9.118;2023-03-29T07:36:16;10.30;99.90
12827;DHT22;66927;48.812;9.118;2023-03-29T07:38:42;10.30;99.90
12827;DHT22;66927;48.812;9.118;2023-03-29T07:41:08;10.30;99.90
12827;DHT22;66927;48.812;9.118;2023-03-29T07:43:34;10.40;99.90
12827;DHT22;66927;48.812;9.118;2023-03-29T07:46:04;10.40;99.90
12827;DHT22;66927;48.812;9.118;2023-03-29T07:48:30;10.50;99.90
12827;DHT22;66927;48.812;9.118;2023-03-29T07:50:57;10.60;99.90
12827;DHT22;66927;48.812;9.118;2023-03-29T07:53:22;10.60;99.90
12827;DHT22;66927;48.812;9.118;2023-03-29T07:55:48;10.80;99.90
12827;DHT22;66927;48.812;9.118;2023-03-29T07:58:15;10.80;99.80
12827;DHT22;66927;48.812;9.118;2023-03-29T08:00:41;10.90;99.90
12827;DHT22;66927;48.812;9.118;2023-03-29T08:03:10;10.90;99.40
12827;DHT22;66927;48.812;9.118;2023-03-29T08:05:36;11.00;99.40
12827;DHT22;66927;48.812;9.118;2023-03-29T08:08:02;11.10;99.20
12827;DHT22;66927;48.812;9.118;2023-03-29T08:10:28;11.10;99.50
12827;DHT22;66927;48.812;9.118;2023-03-29T08:12:53;11.20;99.80
12827;DHT22;66927;48.812;9.118;2023-03-29T08:15:22;11.30;99.40
12827;DHT22;66927;48.812;9.118;2023-03-29T08:17:52;11.40;99.40
12827;DHT22;66927;48.812;9.118;2023-03-29T08:20:18;11.50;99.60
12827;DHT22;66927;48.812;9.118;2023-03-29T08:22:44;11.60;99.20
12827;DHT22;66927;48.812;9.118;2023-03-29T08:25:10;11.70;98.40
12827;DHT22;66927;48.812;9.118;2023-03-29T08:27:37;11.70;98.60
12827;DHT22;66927;48.812;9.118;2023-03-29T08:30:04;11.80;97.60
12827;DHT22;66927;48.812;9.118;2023-03-29T08:32:31;11.80;97.60
12827;DHT22;66927;48.812;9.118;2023-03-29T08:34:57;11.80;98.30
12827;DHT22;66927;48.812;9.118;2023-03-29T08:37:22;11.70;98.70
12827;DHT22;66927;48.812;9.118;2023-03-29T08:39:50;11.80;98.60
12827;DHT22;66927;48.812;9.118;2023-03-29T08:49:46;11.70;98.90
12827;DHT22;66927;48.812;9.118;2023-03-29T08:52:33;11.80;99.10
12827;DHT22;66927;48.812;9.118;2023-03-29T08:55:02;11.80;99.40
12827;DHT22;66927;48.812;9.118;2023-03-29T08:57:40;11.80;99.30
12827;DHT22;66927;48.812;9.118;2023-03-29T09:03:38;12.00;99.00
12827;DHT22;66927;48.812;9.118;2023-03-29T09:06:07;12.10;98.90
12827;DHT22;66927;48.812;9.118;2023-03-29T09:08:44;12.20;99.10
12827;DHT22;66927;48.812;9.118;2023-03-29T09:21:52;12.90;97.30
12827;DHT22;66927;48.812;9.118;2023-03-29T09:24:38;13.10;96.40
12827;DHT22;66927;48.812;9.118;2023-03-29T09:27:25;13.30;94.60
12827;DHT22;66927;48.812;9.118;2023-03-29T09:30:27;13.40;94.70
12827;DHT22;66927;48.812;9.118;2023-03-29T09:32:59;13.40;94.00
12827;DHT22;66927;48.812;9.118;2023-03-29T09:35:37;13.40;93.90
12827;DHT22;66927;48.812;9.118;2023-03-29T09:38:08;13.40;94.60
12827;DHT22;66927;48.812;9.118;2023-03-29T09:40:45;13.40;94.70
12827;DHT22;66927;48.812;9.118;2023-03-29T09:43:15;13.60;94.80
12827;DHT22;66927;48.812;9.118;2023-03-29T09:45:44;13.90;92.80
12827;DHT22;66927;48.812;9.118;2023-03-29T09:48:11;14.00;92.90
12827;DHT22;66927;48.812;9.118;2023-03-29T09:50:46;14.20;93.70
12827;DHT22;66927;48.812;9.118;2023-03-29T09:53:16;14.40;92.00
12827;DHT22;66927;48.812;9.118;2023-03-29T09:55:45;14.60;92.00
12827;DHT22;66927;48.812;9.118;2023-03-29T09:58:22;14.90;91.30
12827;DHT22;66927;48.812;9.118;2023-03-29T10:00:48;15.20;90.50
12827;DHT22;66927;48.812;9.118;2023-03-29T10:03:23;15.40;90.70
12827;DHT22;66927;48.812;9.118;2023-03-29T10:05:50;15.50;88.60
12827;DHT22;66927;48.812;9.118;2023-03-29T10:08:25;15.40;89.30
12827;DHT22;66927;48.812;9.118;2023-03-29T10:10:53;15.40;89.10
12827;DHT22;66927;48.812;9.118;2023-03-29T10:13:42;15.60;90.30
12827;DHT22;66927;48.812;9.118;2023-03-29T10:18:45;16.20;87.80
12827;DHT22;66927;48.812;9.118;2023-03-29T10:21:13;16.40;86.60
12827;DHT22;66927;48.812;9.118;2023-03-29T10:23:45;16.30;85.70
12827;DHT22;66927;48.812;9.118;2023-03-29T10:26:28;16.30;84.80
12827;DHT22;66927;48.812;9.118;2023-03-29T10:28:56;16.30;86.30
12827;DHT22;66927;48.812;9.118;2023-03-29T10:31:28;16.30;83.10
12827;DHT22;66927;48.812;9.118;2023-03-29T10:33:56;16.30;86.20
12827;DHT22;66927;48.812;9.118;2023-03-29T10:36:24;16.30;83.80
12827;DHT22;66927;48.812;9.118;2023-03-29T10:38:53;16.40;83.80
12827;DHT22;66927;48.812;9.118;2023-03-29T10:41:21;16.40;82.70
12827;DHT22;66927;48.812;9.118;2023-03-29T10:43:48;16.50;83.90
12827;DHT22;66927;48.812;9.118;2023-03-29T10:46:27;16.70;84.70
12827;DHT22;66927;48.812;9.118;2023-03-29T10:49:02;17.10;84.50
12827;DHT22;66927;48.812;9.118;2023-03-29T10:51:31;17.60;82.70
12827;DHT22;66927;48.812;9.118;2023-03-29T10:53:57;18.10;81.40
12827;DHT22;66927;48.812;9.118;2023-03-29T10:57:03;18.80;77.80
12827;DHT22;66927;48.812;9.118;2023-03-29T10:59:56;19.60;75.80
12827;DHT22;66927;48.812;9.118;2023-03-29T11:02:49;19.60;74.10
12827;DHT22;66927;48.812;9.118;2023-03-29T11:05:24;20.20;73.00
12827;DHT22;66927;48.812;9.118;2023-03-29T11:24:48;34.10;42.00
12827;DHT22;66927;48.812;9.118;2023-03-29T11:33:44;36.40;37.90
12827;DHT22;66927;48.812;9.118;2023-03-29T11:41:40;33.80;38.20
12827;DHT22;66927;48.812;9.118;2023-03-29T11:44:27;31.30;40.20
12827;DHT22;66927;48.812;9.118;2023-03-29T11:47:01;28.90;42.90
12827;DHT22;66927;48.812;9.118;2023-03-29T11:49:32;27.10;44.90
12827;DHT22;66927;48.812;9.118;2023-03-29T11:57:34;23.00;51.60
12827;DHT22;66927;48.812;9.118;2023-03-29T12:02:38;22.10;53.30
12827;DHT22;66927;48.812;9.118;2023-03-29T12:05:22;23.10;53.10
12827;DHT22;66927;48.812;9.118;2023-03-29T12:07:55;25.60;50.90
12827;DHT22;66927;48.812;9.118;2023-03-29T12:10:29;28.50;45.80
12827;DHT22;66927;48.812;9.118;2023-03-29T12:12:59;30.10;44.20
12827;DHT22;66927;48.812;9.118;2023-03-29T12:15:29;30.20;43.50
12827;DHT22;66927;48.812;9.118;2023-03-29T12:18:17;29.50;42.40
12827;DHT22;66927;48.812;9.118;2023-03-29T12:20:50;27.60;44.50
12827;DHT22;66927;48.812;9.118;2023-03-29T12:23:17;26.00;45.70
12827;DHT22;66927;48.812;9.118;2023-03-29T12:40:14;19.40;55.40
12827;DHT22;66927;48.812;9.118;2023-03-29T12:43:01;19.10;56.70
12827;DHT22;66927;48.812;9.118;2023-03-29T12:45:32;18.70;57.50
12827;DHT22;66927;48.812;9.118;2023-03-29T12:47:59;18.30;59.20
12827;DHT22;66927;48.812;9.118;2023-03-29T12:50:34;18.00;59.50
12827;DHT22;66927;48.812;9.118;2023-03-29T12:53:19;17.70;62.20
12827;DHT22;66927;48.812;9.118;2023-03-29T13:01:07;17.40;63.40
12827;DHT22;66927;48.812;9.118;2023-03-29T13:03:46;17.60;64.50
12827;DHT22;66927;48.812;9.118;2023-03-29T13:11:37;17.90;64.60
12827;DHT22;66927;48.812;9.118;2023-03-29T13:14:16;17.70;65.10
12827;DHT22;66927;48.812;9.118;2023-03-29T13:16:43;17.80;65.80
12827;DHT22;66927;48.812;9.118;2023-03-29T13:19:34;17.90;65.60
12827;DHT22;66927;48.812;9.118;2023-03-29T13:22:42;18.10;64.50
12827;DHT22;66927;48.812;9.118;2023-03-29T13:27:52;18.60;62.90
12827;DHT22;66927;48.812;9.118;2023-03-29T13:36:51;18.00;67.50
12827;DHT22;66927;48.812;9.118;2023-03-29T13:39:29;17.90;67.10
12827;DHT22;66927;48.812;9.118;2023-03-29T13:42:27;17.50;69.30
12827;DHT22;66927;48.812;9.118;2023-03-29T13:45:29;17.60;69.60
12827;DHT22;66927;48.812;9.118;2023-03-29T13:51:26;17.10;72.40
12827;DHT22;66927;48.812;9.118;2023-03-29T13:53:56;16.80;73.60
12827;DHT22;66927;48.812;9.118;2023-03-29T13:56:30;16.40;77.10
12827;DHT22;66927;48.812;9.118;2023-03-29T13:59:14;16.00;83.20
12827;DHT22;66927;48.812;9.118;2023-03-29T14:01:52;15.50;88.80
12827;DHT22;66927;48.812;9.118;2023-03-29T14:04:41;15.30;92.00
12827;DHT22;66927;48.812;9.118;2023-03-29T14:07:11;15.20;96.80
12827;DHT22;66927;48.812;9.118;2023-03-29T14:09:42;15.20;99.90
12827;DHT22;66927;48.812;9.118;2023-03-29T14:12:11;15.30;99.90
12827;DHT22;66927;48.812;9.118;2023-03-29T14:14:41;15.40;99.90
12827;DHT22;66927;48.812;9.118;2023-03-29T14:17:09;15.50;99.90
12827;DHT22;66927;48.812;9.118;2023-03-29T14:19:37;15.60;99.90
12827;DHT22;66927;48.812;9.118;2023-03-29T14:22:09;15.80;99.90
12827;DHT22;66927;48.812;9.118;2023-03-29T14:24:40;15.80;99.90
12827;DHT22;66927;48.812;9.118;2023-03-29T14:27:10;15.80;99.90
12827;DHT22;66927;48.812;9.118;2023-03-29T14:29:36;15.80;99.90
12827;DHT22;66927;48.812;9.118;2023-03-29T14:32:13;15.80;99.90
12827;DHT22;66927;48.812;9.118;2023-03-29T14:34:40;15.80;99.90
12827;DHT22;66927;48.812;9.118;2023-03-29T14:37:10;15.90;99.90
12827;DHT22;66927;48.812;9.118;2023-03-29T14:39:37;16.10;99.90
12827;DHT22;66927;48.812;9.118;2023-03-29T14:42:11;16.20;99.90
12827;DHT22;66927;48.812;9.118;2023-03-29T14:44:38;16.30;99.90
12827;DHT22;66927;48.812;9.118;2023-03-29T14:47:04;16.30;99.90
12827;DHT22;66927;48.812;9.118;2023-03-29T14:49:30;16.40;99.90
12827;DHT22;66927;48.812;9.118;2023-03-29T14:51:56;16.40;99.90
12827;DHT22;66927;48.812;9.118;2023-03-29T14:54:28;16.60;99.90
12827;DHT22;66927;48.812;9.118;2023-03-29T14:56:54;16.90;99.90
12827;DHT22;66927;48.812;9.118;2023-03-29T14:59:28;17.00;99.90
12827;DHT22;66927;48.812;9.118;2023-03-29T15:01:56;17.00;99.90
12827;DHT22;66927;48.812;9.118;2023-03-29T15:04:30;17.20;99.90
12827;DHT22;66927;48.812;9.118;2023-03-29T15:06:57;17.30;99.90
12827;DHT22;66927;48.812;9.118;2023-03-29T15:09:27;17.30;99.90
12827;DHT22;66927;48.812;9.118;2023-03-29T15:11:55;17.20;99.90
12827;DHT22;66927;48.812;9.118;2023-03-29T15:14:24;17.10;99.90
12827;DHT22;66927;48.812;9.118;2023-03-29T15:16:54;17.10;99.90
12827;DHT22;66927;48.812;9.118;2023-03-29T15:19:21;17.10;99.90
12827;DHT22;66927;48.812;9.118;2023-03-29T15:21:50;17.30;99.90
12827;DHT22;66927;48.812;9.118;2023-03-29T15:24:22;17.30;99.90
12827;DHT22;66927;48.812;9.118;2023-03-29T15:27:02;17.30;99.90
12827;DHT22;66927;48.812;9.118;2023-03-29T15:29:39;17.30;99.90
12827;DHT22;66927;48.812;9.118;2023-03-29T15:32:18;18.20;99.90
12827;DHT22;66927;48.812;9.118;2023-03-29T15:34:44;19.60;96.70
12827;DHT22;66927;48.812;9.118;2023-03-29T15:37:11;20.40;95.90
12827;DHT22;66927;48.812;9.118;2023-03-29T15:39:40;20.50;95.20
12827;DHT22;66927;48.812;9.118;2023-03-29T15:42:07;20.30;95.30
12827;DHT22;66927;48.812;9.118;2023-03-29T15:44:37;20.10;95.40
12827;DHT22;66927;48.812;9.118;2023-03-29T15:47:08;20.00;95.30
12827;DHT22;66927;48.812;9.118;2023-03-29T15:49:34;20.10;94.40
12827;DHT22;66927;48.812;9.118;2023-03-29T15:52:00;20.40;93.60
12827;DHT22;66927;48.812;9.118;2023-03-29T15:54:26;20.60;94.00
12827;DHT22;66927;48.812;9.118;2023-03-29T15:57:01;20.40;93.20
12827;DHT22;66927;48.812;9.118;2023-03-29T15:59:29;20.10;93.50
12827;DHT22;66927;48.812;9.118;2023-03-29T16:01:55;19.60;94.20
12827;DHT22;66927;48.812;9.118;2023-03-29T16:04:23;19.00;94.70
12827;DHT22;66927;48.812;9.118;2023-03-29T16:06:50;18.50;94.30
12827;DHT22;66927;48.812;9.118;2023-03-29T16:09:22;18.10;96.10
12827;DHT22;66927;48.812;9.118;2023-03-29T16:11:49;17.70;96.60
12827;DHT22;66927;48.812;9.118;2023-03-29T16:14:20;17.40;96.40
12827;DHT22;66927;48.812;9.118;2023-03-29T16:16:48;17.00;97.10
12827;DHT22;66927;48.812;9.118;2023-03-29T16:19:13;16.80;97.60
12827;DHT22;66927;48.812;9.118;2023-03-29T16:21:39;16.60;97.90
12827;DHT22;66927;48.812;9.118;2023-03-29T16:24:15;16.40;98.00
12827;DHT22;66927;48.812;9.118;2023-03-29T16:26:41;16.30;98.90
12827;DHT22;66927;48.812;9.118;2023-03-29T16:29:07;16.20;98.80
12827;DHT22;66927;48.812;9.118;2023-03-29T16:31:33;16.20;99.00
12827;DHT22;66927;48.812;9.118;2023-03-29T16:33:59;16.10;99.60
12827;DHT22;66927;48.812;9.118;2023-03-29T16:36:25;16.00;99.60
12827;DHT22;66927;48.812;9.118;2023-03-29T16:38:52;15.80;99.70
12827;DHT22;66927;48.812;9.118;2023-03-29T16:41:19;15.70;99.70
12827;DHT22;66927;48.812;9.118;2023-03-29T16:43:44;15.60;99.90
12827;DHT22;66927;48.812;9.118;2023-03-29T16:46:13;15.40;99.90
12827;DHT22;66927;48.812;9.118;2023-03-29T16:48:39;15.40;99.90
12827;DHT22;66927;48.812;9.118;2023-03-29T16:51:09;15.30;99.90
12827;DHT22;66927;48.812;9.118;2023-03-29T16:53:36;15.20;99.90
12827;DHT22;66927;48.812;9.118;2023-03-29T16:56:03;15.20;99.90
12827;DHT22;66927;48.812;9.118;2023-03-29T16:58:28;15.10;99.90
12827;DHT22;66927;48.812;9.118;2023-03-29T17:00:54;15.10;99.90
12827;DHT22;66927;48.812;9.118;2023-03-29T17:03:21;15.00;99.90
12827;DHT22;66927;48.812;9.118;2023-03-29T17:05:49;14.90;99.90
12827;DHT22;66927;48.812;9.118;2023-03-29T17:08:16;14.90;99.90
12827;DHT22;66927;48.812;9.118;2023-03-29T17:10:42;14.80;99.90
12827;DHT22;66927;48.812;9.118;2023-03-29T17:13:11;14.70;99.90
12827;DHT22;66927;48.812;9.118;2023-03-29T17:15:37;14.70;99.90
12827;DHT22;66927;48.812;9.118;2023-03-29T17:18:03;14.60;99.90
12827;DHT22;66927;48.812;9.118;2023-03-29T17:20:29;14.60;99.90
12827;DHT22;66927;48.812;9.118;2023-03-29T17:22:56;14.50;99.90
12827;DHT22;66927;48.812;9.118;2023-03-29T17:25:22;14.50;99.90
12827;DHT22;66927;48.812;9.118;2023-03-29T17:27:48;14.40;99.90
12827;DHT22;66927;48.812;9.118;2023-03-29T17:30:18;14.40;99.90
12827;DHT22;66927;48.812;9.118;2023-03-29T17:37:38;14.30;99.90
12827;DHT22;66927;48.812;9.118;2023-03-29T17:40:04;14.30;99.90
12827;DHT22;66927;48.812;9.118;2023-03-29T17:42:40;14.20;99.90
12827;DHT22;66927;48.812;9.118;2023-03-29T17:45:07;14.20;99.90
12827;DHT22;66927;48.812;9.118;2023-03-29T17:47:33;14.10;99.90
12827;DHT22;66927;48.812;9.118;2023-03-29T17:49:59;14.10;99.90
12827;DHT22;66927;48.812;9.118;2023-03-29T17:52:25;14.10;99.90
12827;DHT22;66927;48.812;9.118;2023-03-29T17:54:52;14.00;99.90
12827;DHT22;66927;48.812;9.118;2023-03-29T17:57:17;14.00;99.90
12827;DHT22;66927;48.812;9.118;2023-03-29T17:59:43;14.00;99.90
12827;DHT22;66927;48.812;9.118;2023-03-29T18:02:18;13.90;99.90
12827;DHT22;66927;48.812;9.118;2023-03-29T18:04:44;13.90;99.90
12827;DHT22;66927;48.812;9.118;2023-03-29T18:07:10;13.90;99.90
12827;DHT22;66927;48.812;9.118;2023-03-29T18:09:36;13.80;99.90
12827;DHT22;66927;48.812;9.118;2023-03-29T18:12:02;13.80;99.90
12827;DHT22;66927;48.812;9.118;2023-03-29T18:14:27;13.80;99.90
12827;DHT22;66927;48.812;9.118;2023-03-29T18:16:53;13.80;99.90
12827;DHT22;66927;48.812;9.118;2023-03-29T18:19:19;13.70;99.90
12827;DHT22;66927;48.812;9.118;2023-03-29T18:21:44;13.80;99.90
12827;DHT22;66927;48.812;9.118;2023-03-29T18:24:10;13.70;99.90